Time;durP1;ratioP1;P1;durP2;ratioP2;P2;SDS_P1;SDS_P2;PMS_P1;PMS_P2;Temp;Humidity;BMP_temperature;BMP_pressure;BME280_temperature;BME280_humidity;BME280_pressure;Samples;Min_cycle;Max_cycle;Signal;HPM_P1;HPM_P2
2021/06/14 00:04:33;;;;;;;10.30;4.75;;;;;;;11.99;75.66;99646.28;4191364;83;21042;-76
2021/06/14 00:10:43;;;;;;;15.80;4.95;;;;;;;11.92;75.64;99653.02;4192167;83;21047;-78
2021/06/14 00:16:51;;;;;;;17.45;5.78;;;;;;;11.85;76.20;99641.38;4136044;83;21028;-77
2021/06/14 00:22:54;;;;;;;9.68;4.78;;;;;;;11.82;76.45;99636.63;4123831;84;21285;-78
2021/06/14 00:29:02;;;;;;;10.65;4.55;;;;;;;11.77;76.65;99627.33;4137242;84;21683;-78
2021/06/14 00:35:10;;;;;;;10.95;5.12;;;;;;;11.73;76.95;99618.84;4119267;84;21063;-78
2021/06/14 00:41:19;;;;;;;10.43;4.15;;;;;;;11.71;77.17;99621.14;4137663;84;21055;-78
2021/06/14 00:47:38;;;;;;;9.38;4.08;;;;;;;11.67;77.31;99620.28;4118350;84;21032;-78
2021/06/14 00:53:41;;;;;;;11.83;4.78;;;;;;;11.60;77.56;99620.95;4033444;87;21532;-78
2021/06/14 00:59:51;;;;;;;15.68;4.90;;;;;;;11.54;77.80;99630.61;4140496;84;21083;-78
2021/06/14 01:06:11;;;;;;;12.23;3.95;;;;;;;11.41;77.90;99633.91;4139055;84;21262;-79
2021/06/14 01:12:30;;;;;;;32.15;4.97;;;;;;;11.42;78.12;99630.00;4124110;84;21016;-78
2021/06/14 01:18:38;;;;;;;9.28;4.20;;;;;;;11.42;78.27;99626.69;4021034;87;21072;-78
2021/06/14 01:25:21;;;;;;;11.22;4.50;;;;;;;11.42;78.05;99637.66;4032079;87;21071;-78
2021/06/14 01:31:31;;;;;;;12.65;4.78;;;;;;;11.38;78.41;99642.30;3997311;87;21635;-78
2021/06/14 01:37:52;;;;;;;8.63;4.08;;;;;;;11.39;78.49;99642.50;4017709;86;21466;-77
2021/06/14 01:44:03;;;;;;;10.60;4.72;;;;;;;11.29;78.36;99640.94;4029954;86;21105;-78
2021/06/14 01:50:11;;;;;;;14.35;5.53;;;;;;;11.07;78.55;99648.75;4018946;87;21478;-78
2021/06/14 01:56:14;;;;;;;15.98;5.30;;;;;;;10.99;78.97;99651.73;3957230;88;21049;-78
2021/06/14 02:02:17;;;;;;;11.12;4.92;;;;;;;10.96;78.70;99649.12;3943276;89;21614;-78
2021/06/14 02:08:22;;;;;;;12.15;4.92;;;;;;;10.78;79.03;99645.81;4031525;86;21528;-78
2021/06/14 02:14:31;;;;;;;10.50;4.92;;;;;;;10.65;79.10;99647.89;3968452;88;21559;-78
2021/06/14 02:20:33;;;;;;;12.45;4.65;;;;;;;10.61;79.49;99643.50;3945571;89;21055;-78
2021/06/14 02:26:37;;;;;;;9.00;5.10;;;;;;;10.54;79.56;99645.51;3966644;88;21051;-78
2021/06/14 02:32:40;;;;;;;11.88;5.15;;;;;;;10.48;79.67;99644.21;3967012;88;21020;-78
2021/06/14 02:38:44;;;;;;;11.25;4.95;;;;;;;10.36;80.10;99648.45;3960760;88;21587;-78
2021/06/14 02:44:47;;;;;;;9.40;5.50;;;;;;;10.27;80.94;99654.70;3947198;88;21127;-78
2021/06/14 02:50:50;;;;;;;18.60;5.58;;;;;;;10.17;80.69;99649.77;3973118;87;21093;-77
2021/06/14 02:56:56;;;;;;;14.98;4.60;;;;;;;10.30;80.70;99653.19;3964468;88;21458;-78
2021/06/14 03:03:03;;;;;;;12.80;5.90;;;;;;;10.35;80.90;99655.65;3964083;88;21087;-78
2021/06/14 03:09:08;;;;;;;20.43;6.73;;;;;;;10.18;81.60;99650.57;3966434;88;21089;-78
2021/06/14 03:15:13;;;;;;;13.78;6.12;;;;;;;10.18;81.60;99650.57;3969971;86;21711;-78
2021/06/14 03:21:16;;;;;;;11.65;6.25;;;;;;;10.11;81.20;99653.94;4067686;86;21012;-77
2021/06/14 03:27:19;;;;;;;16.40;6.12;;;;;;;10.22;81.49;99655.54;4068833;86;21654;-78
2021/06/14 03:33:21;;;;;;;15.55;6.15;;;;;;;10.33;81.58;99661.48;4046369;86;21016;-77
2021/06/14 03:39:23;;;;;;;16.35;5.92;;;;;;;10.43;81.87;99663.64;4060162;86;21141;-77
2021/06/14 03:45:27;;;;;;;17.95;6.87;;;;;;;10.53;81.74;99656.81;4068586;86;21040;-77
2021/06/14 03:51:29;;;;;;;12.63;6.03;;;;;;;10.61;81.93;99662.67;3979521;85;4229644;-76
2021/06/14 03:57:31;;;;;;;13.88;5.95;;;;;;;10.67;82.00;99665.33;4033668;86;21717;-77
2021/06/14 04:03:32;;;;;;;15.50;6.20;;;;;;;10.74;81.97;99664.90;4021268;86;21601;-78
2021/06/14 04:09:34;;;;;;;14.33;7.37;;;;;;;10.84;81.79;99657.49;4118596;84;21346;-79
2021/06/14 04:15:41;;;;;;;16.05;6.25;;;;;;;10.96;82.00;99646.38;4104281;85;21092;-76
2021/06/14 04:21:45;;;;;;;18.27;6.45;;;;;;;11.04;82.01;99652.78;4122513;85;21133;-78
2021/06/14 04:27:51;;;;;;;16.00;6.10;;;;;;;11.10;82.03;99658.21;4116408;85;21576;-76
2021/06/14 04:33:52;;;;;;;16.87;6.03;;;;;;;11.22;81.87;99659.41;4118105;85;22094;-77
2021/06/14 04:39:53;;;;;;;10.85;5.40;;;;;;;11.32;81.92;99656.09;4125804;85;21020;-77
2021/06/14 04:45:55;;;;;;;15.25;6.67;;;;;;;11.41;81.89;99658.02;4115193;85;21094;-77
2021/06/14 04:51:56;;;;;;;20.80;6.78;;;;;;;11.50;81.98;99657.19;4124453;84;21217;-78
2021/06/14 04:57:58;;;;;;;17.00;5.60;;;;;;;11.55;81.99;99662.38;4114734;85;21057;-77
2021/06/14 05:04:01;;;;;;;14.87;5.15;;;;;;;11.64;81.95;99662.95;4112989;84;21084;-77
2021/06/14 05:10:07;;;;;;;15.38;5.92;;;;;;;11.76;81.76;99665.50;4126341;85;21028;-76
2021/06/14 05:16:10;;;;;;;14.10;5.67;;;;;;;11.85;81.76;99666.64;4041144;86;21168;-77
2021/06/14 05:22:12;;;;;;;22.48;6.25;;;;;;;11.98;81.74;99665.30;4124459;84;21117;-76
2021/06/14 05:28:14;;;;;;;10.00;4.62;;;;;;;12.11;81.66;99670.77;4119407;85;21614;-77
2021/06/14 05:34:15;;;;;;;16.77;5.78;;;;;;;12.31;81.54;99665.39;4168365;85;21024;-76
2021/06/14 05:40:19;;;;;;;14.87;5.92;;;;;;;12.49;81.34;99664.50;4124376;84;21041;-77
2021/06/14 05:46:21;;;;;;;17.73;6.08;;;;;;;12.60;80.98;99665.45;4128348;84;21068;-78
2021/06/14 05:52:23;;;;;;;19.12;5.67;;;;;;;12.70;81.03;99671.44;4120767;84;21624;-77
2021/06/14 05:58:24;;;;;;;16.07;5.60;;;;;;;12.83;80.97;99670.02;4127914;83;21060;-77
2021/06/14 06:04:26;;;;;;;17.07;5.85;;;;;;;12.91;80.66;99673.87;4041021;86;21065;-77
2021/06/14 06:10:27;;;;;;;9.23;4.40;;;;;;;12.99;80.54;99671.42;4119680;84;21541;-78
2021/06/14 06:16:28;;;;;;;13.58;4.60;;;;;;;13.07;80.42;99669.58;4136970;85;21180;-78
2021/06/14 06:22:30;;;;;;;16.60;5.65;;;;;;;13.19;80.18;99665.19;4143879;85;21055;-77
2021/06/14 06:28:33;;;;;;;13.55;5.50;;;;;;;13.34;80.21;99657.33;4131071;85;21052;-77
2021/06/14 06:34:44;;;;;;;12.75;4.80;;;;;;;13.48;80.00;99654.72;4043419;86;21045;-78
2021/06/14 06:40:42;;;;;;;12.50;5.50;;;;;;;13.64;79.87;99658.02;4048361;86;21161;-77
2021/06/14 06:46:43;;;;;;;20.17;5.83;;;;;;;13.83;79.55;99657.78;4006366;87;21539;-78
2021/06/14 06:52:45;;;;;;;12.05;5.55;;;;;;;14.14;79.57;99653.91;4054535;86;21079;-77
2021/06/14 06:58:47;;;;;;;13.03;4.08;;;;;;;14.60;79.09;99650.67;4007907;86;21086;-78
2021/06/14 07:04:49;;;;;;;9.70;4.15;;;;;;;15.19;78.46;99644.03;4004771;86;21068;-77
2021/06/14 07:10:52;;;;;;;10.65;4.25;;;;;;;16.05;78.14;99647.13;4056020;86;21051;-78
2021/06/14 07:16:55;;;;;;;12.15;4.35;;;;;;;16.93;76.75;99631.94;3989922;88;21071;-78
2021/06/14 07:22:57;;;;;;;15.90;4.28;;;;;;;17.68;75.52;99636.48;4082966;85;21101;-79
2021/06/14 07:28:58;;;;;;;12.93;3.87;;;;;;;18.36;74.22;99627.95;4083145;85;21128;-80
2021/06/14 07:35:01;;;;;;;8.85;4.08;;;;;;;18.81;73.30;99624.50;4083007;85;21096;-78
2021/06/14 07:41:04;;;;;;;10.63;3.37;;;;;;;19.05;72.09;99625.39;3987362;87;21088;-78
2021/06/14 07:47:06;;;;;;;11.65;4.12;;;;;;;19.25;71.19;99620.16;3986549;87;21093;-78
2021/06/14 07:53:08;;;;;;;6.33;2.50;;;;;;;19.47;70.54;99627.61;4083434;85;21137;-79
2021/06/14 07:59:09;;;;;;;7.37;2.50;;;;;;;19.57;69.10;99629.45;4078117;85;21077;-78
2021/06/14 08:05:12;;;;;;;4.37;1.92;;;;;;;19.71;68.01;99637.57;4082619;85;21121;-79
2021/06/14 08:11:17;;;;;;;4.65;1.35;;;;;;;19.53;66.54;99629.50;3982822;87;21098;-78
2021/06/14 08:17:20;;;;;;;7.92;2.22;;;;;;;19.45;65.79;99609.98;4078130;85;22034;-79
2021/06/14 08:29:42;;;;;;;4.00;1.72;;;;;;;19.18;64.25;99618.09;4097219;84;21108;-79
2021/06/14 08:35:43;;;;;;;5.30;1.90;;;;;;;19.15;62.96;99621.70;4080522;85;21124;-79
2021/06/14 08:41:45;;;;;;;5.95;1.75;;;;;;;19.25;62.47;99624.33;4063547;85;21033;-77
2021/06/14 08:47:50;;;;;;;4.67;1.80;;;;;;;19.26;60.66;99625.92;4086459;85;21049;-77
2021/06/14 08:53:52;;;;;;;4.67;1.55;;;;;;;19.26;60.41;99613.43;4079718;85;21792;-78
2021/06/14 08:59:53;;;;;;;6.97;2.10;;;;;;;19.37;59.94;99611.29;4071197;85;21639;-76
2021/06/14 09:05:56;;;;;;;3.70;1.80;;;;;;;19.48;59.08;99613.93;4075395;85;21030;-77
2021/06/14 09:12:01;;;;;;;4.37;1.98;;;;;;;19.57;58.76;99614.19;4081573;84;22290;-77
2021/06/14 09:18:19;;;;;;;4.03;2.05;;;;;;;19.73;57.84;99610.94;4056487;84;21525;-77
2021/06/14 09:24:21;;;;;;;6.42;1.82;;;;;;;19.78;57.58;99611.08;3968893;88;21128;-77
2021/06/14 09:30:32;;;;;;;4.12;1.80;;;;;;;19.50;57.15;99611.50;3969537;88;21594;-77
2021/06/14 09:36:33;;;;;;;4.80;1.72;;;;;;;19.61;56.42;99594.87;4067226;86;21082;-78
2021/06/14 09:42:39;;;;;;;4.53;1.30;;;;;;;19.79;55.99;99589.83;4067616;84;21126;-78
2021/06/14 09:48:40;;;;;;;3.70;1.40;;;;;;;19.70;55.77;99587.41;4064120;86;21133;-78
2021/06/14 09:54:41;;;;;;;3.67;1.50;;;;;;;19.68;55.43;99596.16;3967988;88;21053;-79
2021/06/14 10:00:58;;;;;;;7.00;1.80;;;;;;;20.09;54.51;99591.06;4071441;86;21561;-77
2021/06/14 10:07:12;;;;;;;11.73;3.00;;;;;;;20.42;55.05;99571.25;4066467;86;21033;-79
2021/06/14 10:13:32;;;;;;;6.12;1.50;;;;;;;20.00;52.12;99591.44;4066982;86;21015;-78
2021/06/14 10:19:38;;;;;;;2.20;0.88;;;;;;;20.35;51.13;99577.53;4083171;85;21049;-78
2021/06/14 10:25:52;;;;;;;3.42;1.40;;;;;;;20.92;52.08;99576.58;4017680;87;21108;-78
2021/06/14 10:31:55;;;;;;;2.55;1.20;;;;;;;20.49;51.00;99573.87;4095335;85;21128;-78
2021/06/14 10:38:02;;;;;;;5.65;1.30;;;;;;;20.62;51.28;99565.67;4107290;83;21087;-78
2021/06/14 10:44:06;;;;;;;2.65;1.20;;;;;;;20.45;49.94;99562.05;4092937;85;21085;-77
2021/06/14 10:50:12;;;;;;;3.25;1.15;;;;;;;20.11;49.73;99556.70;4003995;85;21085;-78
2021/06/14 10:56:16;;;;;;;2.05;1.27;;;;;;;20.70;49.85;99558.76;4112134;85;21082;-77
2021/06/14 11:02:21;;;;;;;3.42;1.32;;;;;;;20.92;48.30;99545.34;4122260;83;21065;-78
2021/06/14 11:08:24;;;;;;;4.42;0.98;;;;;;;21.09;47.46;99547.00;4027757;85;21123;-76
2021/06/14 11:14:43;;;;;;;2.40;0.90;;;;;;;21.81;47.52;99542.70;4097082;83;21609;-78
2021/06/14 11:20:45;;;;;;;5.08;1.10;;;;;;;22.69;45.72;99529.31;4129975;84;21516;-78
2021/06/14 11:26:57;;;;;;;2.17;0.85;;;;;;;23.06;44.50;99530.00;4117719;85;21135;-78
2021/06/14 11:32:59;;;;;;;1.52;0.90;;;;;;;22.55;45.12;99521.35;4133417;83;21629;-78
2021/06/14 11:39:15;;;;;;;2.75;1.12;;;;;;;23.68;43.27;99508.08;4038286;86;21041;-79
2021/06/14 11:45:43;;;;;;;3.40;1.13;;;;;;;23.68;43.27;99508.08;4113658;85;21050;-78
2021/06/14 11:51:55;;;;;;;1.30;0.90;;;;;;;23.34;43.67;99508.00;4120823;85;21368;-78
2021/06/14 11:58:13;;;;;;;1.40;0.88;;;;;;;23.71;42.92;99498.16;4120395;83;21121;-78
2021/06/14 12:04:27;;;;;;;2.87;1.22;;;;;;;24.24;42.73;99494.30;4042089;86;21168;-79
2021/06/14 12:10:41;;;;;;;1.85;0.90;;;;;;;24.15;40.42;99499.83;4097105;83;21739;-78
2021/06/14 12:16:52;;;;;;;4.03;1.27;;;;;;;23.46;41.53;99503.79;4130057;83;21023;-79
2021/06/14 12:23:02;;;;;;;2.02;1.05;;;;;;;23.71;41.40;99496.00;4095320;85;21958;-80
2021/06/14 12:29:03;;;;;;;4.90;1.32;;;;;;;23.73;40.81;99491.51;4104174;84;21562;-78
2021/06/14 12:35:08;;;;;;;1.12;0.88;;;;;;;23.39;40.67;99488.67;4093669;83;21001;-79
2021/06/14 12:41:11;;;;;;;3.35;1.20;;;;;;;22.78;41.04;99463.88;4107806;83;21047;-78
2021/06/14 12:47:16;;;;;;;2.22;1.05;;;;;;;22.78;41.04;99463.88;4095613;85;21088;-78
2021/06/14 12:53:22;;;;;;;3.90;1.35;;;;;;;22.93;40.71;99474.75;3995980;87;21125;-79
2021/06/14 12:59:24;;;;;;;5.03;1.30;;;;;;;22.90;39.72;99472.06;4104222;85;21030;-77
2021/06/14 13:05:43;;;;;;;3.75;1.27;;;;;;;22.81;40.41;99473.35;4095203;85;21046;-79
2021/06/14 13:11:50;;;;;;;1.75;0.90;;;;;;;22.79;40.89;99471.61;4091786;85;21046;-78
2021/06/14 13:17:54;;;;;;;2.75;1.20;;;;;;;22.74;40.71;99465.97;3992412;87;21113;-79
2021/06/14 13:24:12;;;;;;;3.47;1.30;;;;;;;22.78;40.52;99456.89;3997217;87;21708;-78
2021/06/14 13:30:14;;;;;;;5.53;1.67;;;;;;;22.54;40.04;99454.23;4000328;85;21052;-78
2021/06/14 13:36:19;;;;;;;3.20;1.50;;;;;;;22.14;40.62;99450.81;4009997;87;21050;-78
2021/06/14 13:42:21;;;;;;;3.25;1.40;;;;;;;21.92;40.56;99445.66;4112379;85;21077;-78
2021/06/14 13:48:23;;;;;;;2.08;1.00;;;;;;;21.89;40.43;99441.77;4105036;85;21092;-79
2021/06/14 13:54:28;;;;;;;3.05;0.90;;;;;;;21.94;40.02;99437.65;4084817;85;21056;-79
2021/06/14 14:00:29;;;;;;;3.08;1.22;;;;;;;21.94;39.83;99432.84;4089249;85;21074;-79
2021/06/14 14:06:34;;;;;;;3.80;1.30;;;;;;;21.49;40.19;99439.01;4100801;85;21040;-79
2021/06/14 14:12:35;;;;;;;5.37;1.25;;;;;;;21.30;40.25;99426.77;4016923;85;21192;-78
2021/06/14 14:18:37;;;;;;;2.55;1.30;;;;;;;21.44;40.22;99415.26;4111319;83;21057;-78
2021/06/14 14:24:38;;;;;;;3.02;1.30;;;;;;;21.64;40.00;99411.73;4124863;85;21045;-78
2021/06/14 14:30:49;;;;;;;5.28;1.40;;;;;;;21.94;39.67;99408.38;4123040;85;21096;-79
2021/06/14 14:36:53;;;;;;;4.03;1.40;;;;;;;22.30;39.85;99408.30;4129680;85;21061;-78
2021/06/14 14:42:59;;;;;;;5.05;1.20;;;;;;;22.42;40.38;99395.60;4052664;82;22058;-79
2021/06/14 14:49:00;;;;;;;3.10;1.15;;;;;;;22.29;40.29;99390.01;4037461;86;21117;-78
2021/06/14 14:55:02;;;;;;;2.47;1.40;;;;;;;22.26;40.19;99384.53;4032304;86;21055;-77
2021/06/14 15:01:04;;;;;;;2.67;1.10;;;;;;;22.26;39.95;99381.14;4045483;86;21114;-78
2021/06/14 15:07:07;;;;;;;1.55;0.90;;;;;;;22.39;39.86;99383.95;4039982;86;21032;-78
2021/06/14 15:13:08;;;;;;;4.97;1.22;;;;;;;22.31;39.76;99377.80;4039019;86;21069;-78
2021/06/14 15:19:10;;;;;;;3.52;0.88;;;;;;;22.31;39.83;99373.63;4043033;86;21520;-77
2021/06/14 15:25:13;;;;;;;3.75;1.02;;;;;;;22.34;40.14;99364.97;4056639;86;21023;-79
2021/06/14 15:31:21;;;;;;;3.25;1.22;;;;;;;22.24;39.59;99361.27;4044034;86;21597;-78
2021/06/14 15:37:23;;;;;;;4.08;1.17;;;;;;;22.00;38.78;99364.80;4050212;86;21070;-77
2021/06/14 15:43:26;;;;;;;5.00;1.02;;;;;;;21.80;38.85;99369.77;4055262;86;21543;-77
2021/06/14 15:49:28;;;;;;;4.58;1.07;;;;;;;21.60;38.73;99364.30;4055411;86;21058;-77
2021/06/14 15:55:30;;;;;;;3.52;1.40;;;;;;;21.46;39.44;99365.48;4060323;86;21100;-78
2021/06/14 16:01:34;;;;;;;4.83;1.30;;;;;;;21.37;39.18;99357.58;3945086;84;10000609;-78
2021/06/14 16:07:36;;;;;;;3.27;1.37;;;;;;;21.10;39.31;99348.73;4057851;86;21037;-77
2021/06/14 16:13:41;;;;;;;3.12;1.20;;;;;;;20.89;39.64;99357.61;4054583;86;21218;-78
2021/06/14 16:19:42;;;;;;;3.45;1.30;;;;;;;20.76;39.72;99358.91;4045972;86;21518;-78
2021/06/14 16:25:44;;;;;;;2.67;1.30;;;;;;;20.74;39.83;99346.63;4046518;86;21499;-77
2021/06/14 16:31:45;;;;;;;2.77;1.17;;;;;;;20.75;39.92;99350.38;4045697;86;21371;-77
2021/06/14 16:37:47;;;;;;;4.78;1.30;;;;;;;20.79;39.85;99346.91;4041476;86;21083;-78
2021/06/14 16:43:49;;;;;;;2.72;1.25;;;;;;;20.81;40.06;99350.05;3949450;88;21088;-78
2021/06/14 16:49:50;;;;;;;3.02;0.90;;;;;;;20.76;40.77;99345.00;4035560;86;21054;-77
2021/06/14 16:55:52;;;;;;;3.20;1.05;;;;;;;20.72;40.15;99340.11;4042439;86;21064;-78
2021/06/14 17:01:54;;;;;;;3.10;1.20;;;;;;;20.64;40.28;99347.06;3930560;84;9999733;-78
2021/06/14 17:07:55;;;;;;;2.22;1.37;;;;;;;20.58;40.37;99350.19;4046545;86;21602;-77
2021/06/14 17:13:57;;;;;;;2.90;1.30;;;;;;;20.52;40.83;99351.13;4051058;86;21084;-79
2021/06/14 17:20:00;;;;;;;2.47;1.30;;;;;;;20.41;40.70;99343.64;4041210;86;21066;-78
2021/06/14 17:26:03;;;;;;;1.92;1.17;;;;;;;20.37;40.72;99350.70;4032156;86;21045;-78
2021/06/14 17:32:05;;;;;;;3.60;1.47;;;;;;;20.32;40.67;99348.42;4030201;86;21572;-78
2021/06/14 17:38:06;;;;;;;3.42;1.17;;;;;;;20.17;40.99;99347.94;4042720;86;21087;-77
2021/06/14 17:44:07;;;;;;;3.80;1.30;;;;;;;20.05;41.37;99345.80;4048824;86;21102;-78
2021/06/14 17:50:12;;;;;;;4.60;1.05;;;;;;;19.91;41.58;99341.14;4044820;86;21626;-77
2021/06/14 17:56:13;;;;;;;4.05;1.07;;;;;;;19.76;42.33;99343.42;4047111;86;21523;-76
2021/06/14 18:02:15;;;;;;;3.25;1.87;;;;;;;19.62;42.77;99337.39;4048749;86;21139;-77
2021/06/14 18:08:17;;;;;;;6.53;1.87;;;;;;;19.44;43.39;99341.89;4044282;86;21638;-77
2021/06/14 18:14:18;;;;;;;5.55;1.32;;;;;;;19.28;43.53;99341.80;4037907;86;21095;-77
2021/06/14 18:20:24;;;;;;;4.25;1.72;;;;;;;19.13;44.09;99350.77;4042068;86;21021;-79
2021/06/14 18:26:27;;;;;;;2.42;1.50;;;;;;;18.99;44.30;99362.91;4039706;86;21073;-77
2021/06/14 18:32:30;;;;;;;2.45;1.62;;;;;;;18.79;44.84;99373.15;4040636;86;21059;-77
2021/06/14 18:38:34;;;;;;;4.72;1.70;;;;;;;18.65;45.10;99377.53;4043898;86;21003;-77
2021/06/14 18:44:36;;;;;;;2.65;1.12;;;;;;;18.40;45.45;99382.03;4048614;86;21013;-77
2021/06/14 18:50:38;;;;;;;5.22;1.55;;;;;;;18.16;45.96;99382.35;4036450;86;21470;-77
2021/06/14 18:56:41;;;;;;;6.20;1.87;;;;;;;17.88;46.61;99384.89;4039981;86;20991;-77
2021/06/14 19:02:43;;;;;;;4.05;1.92;;;;;;;17.55;47.30;99386.25;4037663;86;21023;-77
2021/06/14 19:08:45;;;;;;;5.58;2.40;;;;;;;17.20;48.11;99385.97;4036752;86;21056;-77
2021/06/14 19:14:46;;;;;;;9.58;2.70;;;;;;;16.90;48.68;99392.16;4040150;86;21063;-77
2021/06/14 19:20:48;;;;;;;6.42;2.52;;;;;;;16.60;49.33;99400.89;4037899;86;21219;-78
2021/06/14 19:27:05;;;;;;;8.40;2.75;;;;;;;16.30;50.43;99407.55;3942763;89;21946;-78
2021/06/14 19:33:21;;;;;;;6.67;3.35;;;;;;;16.11;51.18;99412.17;4037500;86;21027;-78
2021/06/14 19:39:27;;;;;;;9.88;4.20;;;;;;;15.89;52.56;99410.10;4039622;86;21032;-77
2021/06/14 19:45:42;;;;;;;10.13;3.75;;;;;;;15.65;53.00;99413.13;4040241;86;21111;-80
2021/06/14 19:52:01;;;;;;;;;;;;;;;;;;;;;
2021/06/14 19:58:07;;;;;;;10.38;4.10;;;;;;;15.16;55.29;99418.69;4036316;86;21113;-78
2021/06/14 20:04:15;;;;;;;12.33;5.17;;;;;;;15.03;56.41;99425.80;4045971;86;21050;-76
2021/06/14 20:10:28;;;;;;;10.80;5.37;;;;;;;14.86;57.05;99428.55;4034532;86;21705;-78
2021/06/14 20:16:39;;;;;;;12.95;7.33;;;;;;;14.78;58.41;99425.58;3945842;89;21054;-79
2021/06/14 20:22:57;;;;;;;13.25;7.78;;;;;;;14.55;58.58;99427.91;3902018;89;21050;-78
2021/06/14 20:29:02;;;;;;;15.72;7.17;;;;;;;14.37;59.68;99436.70;3921637;89;21038;-78
2021/06/14 20:35:05;;;;;;;13.00;6.60;;;;;;;14.16;59.90;99436.81;3932749;89;21030;-77
2021/06/14 20:41:09;;;;;;;13.68;6.33;;;;;;;13.96;60.17;99441.64;3930706;88;21077;-78
2021/06/14 20:47:16;;;;;;;9.48;6.03;;;;;;;13.85;60.33;99444.92;3960257;88;21482;-78
2021/06/14 20:53:18;;;;;;;8.83;5.73;;;;;;;13.66;60.75;99443.25;3953303;88;21516;-78
2021/06/14 20:59:23;;;;;;;11.30;6.05;;;;;;;13.55;62.06;99442.40;4045021;86;20999;-78
2021/06/14 21:05:27;;;;;;;12.75;5.45;;;;;;;13.55;62.44;99445.72;3937772;86;9999864;-77
2021/06/14 21:11:39;;;;;;;7.92;4.65;;;;;;;13.36;62.55;99444.64;4052011;86;21055;-80
2021/06/14 21:17:47;;;;;;;10.23;4.50;;;;;;;13.14;62.82;99444.27;4045629;86;21071;-77
2021/06/14 21:23:52;;;;;;;13.95;5.22;;;;;;;13.04;63.42;99440.84;4050240;85;21027;-79
2021/06/14 21:30:22;;;;;;;11.78;5.33;;;;;;;12.95;64.64;99441.72;4048741;86;21592;-77
2021/06/14 21:36:15;;;;;;;11.48;5.10;;;;;;;13.09;65.06;99444.63;4031850;85;21034;-77
2021/06/14 21:42:20;;;;;;;7.72;4.03;;;;;;;12.93;65.07;99436.61;4048129;86;21631;-77
2021/06/14 21:48:22;;;;;;;7.40;4.70;;;;;;;12.74;65.51;99439.56;4050292;86;21038;-77
2021/06/14 21:54:33;;;;;;;15.55;5.60;;;;;;;12.61;65.83;99437.68;4050003;86;21028;-78
2021/06/14 22:00:38;;;;;;;10.00;4.72;;;;;;;12.41;65.90;99439.05;4049102;86;21082;-77
2021/06/14 22:06:42;;;;;;;8.78;4.45;;;;;;;12.30;66.75;99438.14;4046278;86;21067;-77
2021/06/14 22:12:44;;;;;;;10.18;4.50;;;;;;;12.54;67.43;99443.69;4050407;86;21055;-77
2021/06/14 22:18:46;;;;;;;6.28;4.08;;;;;;;12.56;66.93;99437.22;4045669;86;21049;-78
2021/06/14 22:24:52;;;;;;;7.70;4.50;;;;;;;12.48;67.23;99443.22;4046900;86;21000;-78
2021/06/14 22:30:55;;;;;;;8.10;3.95;;;;;;;12.24;67.20;99448.45;4040293;86;21040;-77
2021/06/14 22:36:59;;;;;;;8.60;4.00;;;;;;;12.11;68.16;99447.91;3943899;89;21053;-77
2021/06/14 22:43:08;;;;;;;8.43;4.62;;;;;;;12.01;68.44;99449.93;4043229;86;21018;-77
2021/06/14 22:49:09;;;;;;;7.72;3.95;;;;;;;12.07;68.71;99453.15;4039588;86;21139;-76
2021/06/14 22:55:14;;;;;;;10.10;4.97;;;;;;;12.05;68.58;99457.64;4042352;86;21078;-77
2021/06/14 23:01:18;;;;;;;8.88;3.75;;;;;;;11.76;68.69;99448.05;4040237;86;21062;-77
2021/06/14 23:07:19;;;;;;;12.28;5.40;;;;;;;11.62;69.20;99446.45;4041505;86;21037;-77
2021/06/14 23:13:24;;;;;;;8.85;5.35;;;;;;;11.49;69.50;99439.59;4035615;86;21099;-77
2021/06/14 23:19:36;;;;;;;9.20;4.53;;;;;;;11.47;70.02;99434.48;4043889;86;21198;-77
2021/06/14 23:25:52;;;;;;;8.13;4.63;;;;;;;11.27;70.18;99436.33;4040314;86;21091;-76
2021/06/14 23:31:57;;;;;;;11.00;4.78;;;;;;;11.19;70.66;99438.75;3952219;88;21786;-77
2021/06/14 23:38:07;;;;;;;6.87;4.75;;;;;;;11.22;71.02;99435.27;4050472;86;21857;-78
2021/06/14 23:44:10;;;;;;;10.72;5.33;;;;;;;11.12;71.16;99433.17;4048471;86;21046;-78
2021/06/14 23:50:20;;;;;;;9.53;5.28;;;;;;;11.04;71.61;99428.94;3952770;87;21100;-77
2021/06/14 23:56:27;;;;;;;8.38;4.83;;;;;;;11.04;71.32;99415.23;4045177;86;21067;-78
